Time;durP1;ratioP1;P1;durP2;ratioP2;P2;SDS_P1;SDS_P2;PMS_P1;PMS_P2;Temp;Humidity;BMP_temperature;BMP_pressure;BME280_temperature;BME280_humidity;BME280_pressure;Samples;Min_cycle;Max_cycle;Signal;HPM_P1;HPM_P2
2021/05/11 00:02:17;;;;;;;3.80;2.25;;;16.40;90.80;;;;;;5098019;28;20020;-38
2021/05/11 00:04:43;;;;;;;6.45;2.33;;;16.40;90.90;;;;;;5086937;28;20040;-40
2021/05/11 00:07:08;;;;;;;6.75;2.20;;;16.40;91.00;;;;;;5098008;28;20499;-40
2021/05/11 00:09:34;;;;;;;4.32;2.15;;;16.30;91.00;;;;;;5086932;28;20024;-39
2021/05/11 00:11:59;;;;;;;6.20;2.60;;;16.30;91.00;;;;;;5098212;28;20028;-39
2021/05/11 00:14:25;;;;;;;3.85;2.25;;;16.30;91.10;;;;;;5087223;28;20111;-40
2021/05/11 00:16:50;;;;;;;3.42;2.35;;;16.30;91.20;;;;;;5098619;28;20114;-40
2021/05/11 00:19:17;;;;;;;5.60;2.10;;;16.30;91.30;;;;;;5086239;28;20106;-40
2021/05/11 00:21:43;;;;;;;5.70;2.58;;;16.30;91.40;;;;;;5097738;28;20020;-40
2021/05/11 00:24:09;;;;;;;6.68;2.60;;;16.20;91.50;;;;;;5087896;28;20130;-39
2021/05/11 00:26:38;;;;;;;5.65;2.78;;;16.20;91.50;;;;;;5094826;28;20036;-39
2021/05/11 00:29:04;;;;;;;7.25;2.90;;;16.20;91.60;;;;;;5089491;28;20046;-39
2021/05/11 00:31:30;;;;;;;5.78;2.67;;;16.20;91.70;;;;;;5088195;28;20111;-40
2021/05/11 00:33:56;;;;;;;7.53;3.25;;;16.20;91.90;;;;;;5100289;28;20411;-40
2021/05/11 00:36:21;;;;;;;9.23;3.30;;;16.00;92.50;;;;;;5102215;28;20729;-38
2021/05/11 00:38:47;;;;;;;6.93;3.40;;;15.90;92.60;;;;;;5095761;28;20171;-36
2021/05/11 00:41:12;;;;;;;6.97;2.90;;;15.80;92.60;;;;;;5087605;28;20404;-40
2021/05/11 00:43:45;;;;;;;7.95;3.55;;;15.80;93.10;;;;;;5097025;28;20024;-41
2021/05/11 00:46:13;;;;;;;5.93;3.15;;;15.70;93.30;;;;;;5085892;28;20055;-39
2021/05/11 00:48:41;;;;;;;7.07;3.55;;;15.60;93.40;;;;;;5096631;28;20028;-38
2021/05/11 00:51:10;;;;;;;5.90;3.38;;;15.50;93.40;;;;;;5087493;28;20078;-39
2021/05/11 00:53:38;;;;;;;10.32;5.22;;;15.50;93.40;;;;;;5097773;28;20051;-40
2021/05/11 00:56:04;;;;;;;6.65;3.35;;;15.50;93.40;;;;;;5085244;28;20032;-38
2021/05/11 00:58:31;;;;;;;8.02;3.30;;;15.50;93.40;;;;;;5098333;28;20024;-39
2021/05/11 01:00:56;;;;;;;6.97;3.30;;;15.50;93.30;;;;;;5085776;28;20040;-40
2021/05/11 01:03:22;;;;;;;9.20;3.55;;;15.60;93.40;;;;;;5098679;28;20073;-38
2021/05/11 01:05:48;;;;;;;8.20;3.40;;;15.60;93.40;;;;;;5085164;28;20038;-39
2021/05/11 01:08:14;;;;;;;7.22;3.13;;;15.60;93.50;;;;;;5096478;28;20073;-40
2021/05/11 01:10:40;;;;;;;6.75;3.65;;;15.50;93.50;;;;;;5086302;28;20047;-40
2021/05/11 01:13:05;;;;;;;8.32;3.80;;;15.50;93.60;;;;;;5094211;28;20019;-42
2021/05/11 01:15:32;;;;;;;11.07;3.92;;;15.50;93.80;;;;;;5089715;28;20106;-39
2021/05/11 01:18:25;;;;;;;9.05;3.75;;;15.40;93.90;;;;;;5090787;28;20024;-40
2021/05/11 01:20:48;;;;;;;13.18;4.45;;;15.40;93.90;;;;;;5087119;28;20426;-40
2021/05/11 01:23:41;;;;;;;10.82;4.20;;;15.40;94.00;;;;;;5092760;28;20100;-40
2021/05/11 01:26:15;;;;;;;10.10;4.10;;;15.30;94.20;;;;;;5087577;28;20044;-39
2021/05/11 01:28:56;;;;;;;9.73;4.47;;;15.30;94.20;;;;;;5094183;28;20059;-40
2021/05/11 01:45:33;;;;;;;6.57;3.90;;;15.40;94.40;;;;;;5092657;28;20490;-40
2021/05/11 02:18:05;;;;;;;5.35;3.35;;;15.40;94.70;;;;;;5086503;28;20039;-39
2021/05/11 02:23:15;;;;;;;8.55;4.20;;;15.40;94.70;;;;;;5088937;28;20047;-40
2021/05/11 02:25:40;;;;;;;8.02;3.83;;;15.40;94.80;;;;;;5092088;28;20401;-39
2021/05/11 02:28:06;;;;;;;5.40;2.97;;;15.40;94.80;;;;;;5106308;28;20024;-39
2021/05/11 02:30:32;;;;;;;5.10;3.17;;;15.40;94.80;;;;;;5100964;28;20036;-39
2021/05/11 02:32:57;;;;;;;6.05;3.40;;;15.40;94.80;;;;;;5102549;28;20061;-38
2021/05/11 02:35:23;;;;;;;5.00;3.28;;;15.40;94.80;;;;;;5104365;28;20431;-39
2021/05/11 02:37:49;;;;;;;8.85;3.78;;;15.50;94.80;;;;;;5100256;28;20016;-40
2021/05/11 02:40:16;;;;;;;8.05;4.22;;;15.50;94.80;;;;;;5097783;28;20630;-39
2021/05/11 02:42:44;;;;;;;7.63;3.92;;;15.50;94.80;;;;;;5098411;28;20102;-42
2021/05/11 02:45:12;;;;;;;10.40;4.00;;;15.50;94.80;;;;;;5089558;28;20431;-38
2021/05/11 02:47:48;;;;;;;10.80;4.03;;;15.50;94.80;;;;;;5099438;28;20400;-36
2021/05/11 02:50:28;;;;;;;6.97;3.75;;;15.40;94.80;;;;;;5089459;28;20367;-39
2021/05/11 02:52:58;;;;;;;8.73;3.70;;;15.40;94.90;;;;;;5098946;28;20401;-40
2021/05/11 02:55:24;;;;;;;8.63;3.78;;;15.40;94.90;;;;;;5089550;28;20024;-39
2021/05/11 02:57:52;;;;;;;6.25;3.90;;;15.40;94.90;;;;;;5098775;28;20031;-40
2021/05/11 03:00:19;;;;;;;8.38;4.30;;;15.40;95.00;;;;;;5088742;28;20407;-40
2021/05/11 03:02:45;;;;;;;5.07;3.70;;;15.40;95.00;;;;;;5099058;28;20074;-38
2021/05/11 03:05:11;;;;;;;6.40;3.88;;;15.40;95.00;;;;;;5088259;28;20125;-39
2021/05/11 03:07:37;;;;;;;8.95;3.75;;;15.40;95.10;;;;;;5099725;28;20394;-39
2021/05/11 03:10:08;;;;;;;6.03;3.40;;;15.40;95.10;;;;;;5088163;28;20040;-39
2021/05/11 03:12:34;;;;;;;6.60;3.85;;;15.40;95.20;;;;;;5099923;28;20020;-39
2021/05/11 03:15:01;;;;;;;7.28;3.70;;;15.30;95.20;;;;;;5086703;28;20055;-38
2021/05/11 03:17:27;;;;;;;6.97;4.40;;;15.40;95.20;;;;;;5098812;28;20027;-37
2021/05/11 03:19:53;;;;;;;7.30;4.15;;;15.40;95.20;;;;;;5089597;28;20027;-38
2021/05/11 03:22:19;;;;;;;9.25;4.28;;;15.40;95.30;;;;;;5094789;28;20381;-39
2021/05/11 03:24:45;;;;;;;6.50;3.85;;;15.50;95.30;;;;;;5091869;28;20032;-38
2021/05/11 03:27:13;;;;;;;9.88;4.00;;;15.40;95.30;;;;;;5093030;28;20098;-38
2021/05/11 03:29:39;;;;;;;9.75;4.60;;;15.40;95.30;;;;;;5094158;28;20032;-39
2021/05/11 03:32:06;;;;;;;6.35;4.15;;;15.50;95.40;;;;;;5089595;28;20509;-39
2021/05/11 03:34:32;;;;;;;6.45;4.25;;;15.50;95.40;;;;;;5096558;28;20032;-38
2021/05/11 03:36:58;;;;;;;6.20;4.30;;;15.40;95.40;;;;;;5088446;28;21060;-38
2021/05/11 03:39:24;;;;;;;6.53;4.30;;;15.40;95.40;;;;;;5103719;28;20015;-39
2021/05/11 03:41:54;;;;;;;5.88;4.10;;;15.40;95.40;;;;;;5105783;28;20069;-40
2021/05/11 03:44:28;;;;;;;6.57;4.30;;;15.40;95.50;;;;;;5095938;28;20023;-40
2021/05/11 03:46:53;;;;;;;7.95;4.10;;;15.40;95.50;;;;;;5106124;28;20063;-39
2021/05/11 03:49:19;;;;;;;5.72;4.20;;;15.40;95.50;;;;;;5096026;28;20348;-37
2021/05/11 03:51:45;;;;;;;8.13;4.50;;;15.40;95.50;;;;;;5106501;28;20519;-39
2021/05/11 03:54:11;;;;;;;6.57;4.00;;;15.40;95.50;;;;;;5094408;28;20055;-39
2021/05/11 03:56:37;;;;;;;6.60;4.32;;;15.40;95.60;;;;;;5107972;28;20386;-39
2021/05/11 03:59:03;;;;;;;6.05;4.32;;;15.40;95.60;;;;;;5094008;28;20501;-40
2021/05/11 04:01:29;;;;;;;7.93;4.30;;;15.40;95.60;;;;;;5107025;28;20032;-40
2021/05/11 04:03:58;;;;;;;6.43;4.15;;;15.40;95.60;;;;;;5096931;28;20104;-39
2021/05/11 04:06:23;;;;;;;6.93;4.30;;;15.40;95.60;;;;;;5105039;28;20028;-39
2021/05/11 04:16:39;;;;;;;7.47;4.10;;;15.40;95.50;;;;;;5102879;28;20391;-39
2021/05/11 04:19:05;;;;;;;5.82;3.83;;;15.40;95.50;;;;;;5099396;28;20633;-40
2021/05/11 04:21:30;;;;;;;6.40;3.58;;;15.40;95.50;;;;;;5100969;28;20133;-40
2021/05/11 04:23:56;;;;;;;5.35;4.20;;;15.40;95.50;;;;;;5101884;28;20031;-43
2021/05/11 04:26:24;;;;;;;7.40;4.40;;;15.40;95.50;;;;;;5097702;28;20132;-39
2021/05/11 04:28:53;;;;;;;6.93;4.03;;;15.50;95.50;;;;;;5104777;28;20020;-39
2021/05/11 04:31:19;;;;;;;8.00;4.18;;;15.40;95.50;;;;;;5096258;28;20035;-40
2021/05/11 04:33:46;;;;;;;6.18;3.75;;;15.40;95.50;;;;;;5104043;28;20024;-39
2021/05/11 04:36:13;;;;;;;8.15;4.35;;;15.40;95.50;;;;;;5095656;28;20076;-35
2021/05/11 04:38:39;;;;;;;10.65;4.00;;;15.40;95.50;;;;;;5104969;28;20081;-38
2021/05/11 04:41:05;;;;;;;6.40;4.15;;;15.50;95.50;;;;;;5094010;28;20632;-39
2021/05/11 04:43:34;;;;;;;5.75;3.90;;;15.50;95.50;;;;;;5107205;28;20111;-38
2021/05/11 04:46:24;;;;;;;6.70;3.80;;;15.50;95.40;;;;;;5092979;28;20031;-39
2021/05/11 04:48:52;;;;;;;6.22;3.83;;;15.50;95.40;;;;;;5105526;28;20160;-41
2021/05/11 04:51:18;;;;;;;7.15;3.85;;;15.50;95.40;;;;;;5101735;28;20034;-39
2021/05/11 04:53:44;;;;;;;5.38;4.03;;;15.50;95.30;;;;;;5085058;28;20169;-36
2021/05/11 04:56:10;;;;;;;8.57;4.30;;;15.50;95.30;;;;;;5097835;28;20465;-38
2021/05/11 04:58:36;;;;;;;5.43;3.90;;;15.50;95.40;;;;;;5085927;28;20016;-39
2021/05/11 05:01:05;;;;;;;8.10;4.75;;;15.50;95.40;;;;;;5096829;28;20036;-39
2021/05/11 05:03:35;;;;;;;7.95;4.60;;;15.50;95.40;;;;;;5086647;28;20051;-40
2021/05/11 05:06:00;;;;;;;4.70;4.00;;;15.50;95.40;;;;;;5095695;28;20454;-38
2021/05/11 05:08:26;;;;;;;7.40;4.10;;;15.60;95.40;;;;;;5088226;28;20028;-38
2021/05/11 05:10:51;;;;;;;7.18;4.15;;;15.60;95.40;;;;;;5092292;28;20106;-39
2021/05/11 05:13:25;;;;;;;7.47;3.85;;;15.60;95.40;;;;;;5091134;28;20036;-37
2021/05/11 05:15:51;;;;;;;8.77;4.18;;;15.60;95.40;;;;;;5090638;28;20024;-39
2021/05/11 05:18:18;;;;;;;8.45;6.18;;;15.60;95.40;;;;;;5092588;28;20039;-39
2021/05/11 05:20:45;;;;;;;9.05;4.45;;;15.60;95.40;;;;;;5088711;28;20020;-38
2021/05/11 05:23:10;;;;;;;6.78;4.30;;;15.60;95.40;;;;;;5094500;28;20028;-37
2021/05/11 05:25:36;;;;;;;5.90;4.13;;;15.60;95.40;;;;;;5086460;28;20547;-40
2021/05/11 05:28:07;;;;;;;6.80;4.00;;;15.60;95.40;;;;;;5096796;28;20546;-39
2021/05/11 05:30:33;;;;;;;8.07;4.25;;;15.60;95.40;;;;;;5086502;28;20153;-39
2021/05/11 05:33:02;;;;;;;5.32;3.92;;;15.60;95.40;;;;;;5096506;28;20024;-37
2021/05/11 05:35:29;;;;;;;6.75;4.22;;;15.70;95.50;;;;;;5085513;28;20028;-39
2021/05/11 05:37:55;;;;;;;5.55;3.70;;;15.70;95.50;;;;;;5096737;28;20023;-40
2021/05/11 05:40:21;;;;;;;6.38;3.95;;;15.70;95.40;;;;;;5097108;28;20362;-41
2021/05/11 05:42:47;;;;;;;5.57;4.05;;;15.70;95.40;;;;;;5092428;28;20028;-38
2021/05/11 05:45:14;;;;;;;5.53;3.85;;;15.80;95.40;;;;;;5105810;28;20036;-38
2021/05/11 05:48:01;;;;;;;5.13;3.63;;;15.80;95.40;;;;;;5093072;28;20020;-43
2021/05/11 05:50:28;;;;;;;7.75;4.20;;;15.70;95.40;;;;;;5084583;28;20088;-39
2021/05/11 05:53:04;;;;;;;6.88;4.05;;;15.80;95.40;;;;;;5089313;28;20115;-37
2021/05/11 05:55:30;;;;;;;5.63;4.35;;;15.80;95.40;;;;;;5101936;28;20031;-38
2021/05/11 05:57:56;;;;;;;5.55;4.38;;;15.80;95.40;;;;;;5100586;28;20648;-38
2021/05/11 06:00:23;;;;;;;5.75;4.20;;;15.90;95.40;;;;;;5103161;28;20040;-38
2021/05/11 06:02:51;;;;;;;7.90;4.57;;;15.90;95.40;;;;;;5098675;28;20028;-37
2021/05/11 06:05:17;;;;;;;6.55;4.07;;;15.90;95.40;;;;;;5102836;28;20416;-39
2021/05/11 06:07:43;;;;;;;5.90;3.92;;;15.90;95.40;;;;;;5101069;28;20020;-39
2021/05/11 06:10:11;;;;;;;5.18;4.10;;;16.00;95.40;;;;;;5103312;28;20028;-37
2021/05/11 06:12:54;;;;;;;6.13;4.00;;;16.10;95.30;;;;;;5103582;28;20024;-38
2021/05/11 06:18:12;;;;;;;6.63;4.03;;;16.20;95.20;;;;;;5063489;28;20028;-39
2021/05/11 06:20:38;;;;;;;5.32;3.85;;;16.30;95.20;;;;;;5104854;28;20023;-39
2021/05/11 06:23:04;;;;;;;5.70;4.22;;;16.30;95.20;;;;;;5104755;28;20107;-38
2021/05/11 06:25:29;;;;;;;8.20;4.47;;;16.40;95.20;;;;;;5095345;28;20114;-40
2021/05/11 06:27:56;;;;;;;7.78;4.60;;;16.40;95.20;;;;;;5099067;28;20647;-37
2021/05/11 06:30:22;;;;;;;6.10;3.80;;;16.50;95.50;;;;;;5099348;28;20467;-36
2021/05/11 06:32:48;;;;;;;6.75;4.18;;;16.60;95.20;;;;;;5095452;28;20028;-38
2021/05/11 06:35:16;;;;;;;4.55;3.88;;;16.60;95.10;;;;;;5099874;28;20036;-38
2021/05/11 06:37:44;;;;;;;5.13;3.58;;;16.70;95.10;;;;;;5106912;28;20043;-38
2021/05/11 06:40:14;;;;;;;4.55;3.03;;;16.80;95.10;;;;;;5100383;28;20115;-39
2021/05/11 06:42:40;;;;;;;5.32;3.90;;;16.80;95.00;;;;;;5094645;28;20038;-37
2021/05/11 06:45:35;;;;;;;5.25;4.35;;;16.80;95.00;;;;;;5103519;28;20127;-39
2021/05/11 06:48:04;;;;;;;5.68;4.13;;;16.90;94.90;;;;;;5088956;28;20075;-38
2021/05/11 06:50:35;;;;;;;7.15;4.10;;;17.00;94.90;;;;;;5099497;28;20024;-37
2021/05/11 06:53:13;;;;;;;6.88;3.75;;;17.10;94.80;;;;;;5087779;28;20020;-38
2021/05/11 06:55:43;;;;;;;5.65;4.00;;;17.10;94.70;;;;;;5105159;28;20024;-37
2021/05/11 06:58:10;;;;;;;6.53;4.13;;;17.20;94.70;;;;;;5107744;28;20512;-39
2021/05/11 07:00:35;;;;;;;5.32;3.80;;;17.20;94.70;;;;;;5102152;28;20051;-40
2021/05/11 07:03:01;;;;;;;6.05;3.90;;;17.30;94.70;;;;;;5108815;28;20469;-40
2021/05/11 07:05:30;;;;;;;6.95;4.35;;;17.30;94.60;;;;;;5095832;28;20036;-40
2021/05/11 07:08:04;;;;;;;5.10;4.00;;;17.40;94.60;;;;;;5106496;28;20040;-37
2021/05/11 07:10:33;;;;;;;6.47;3.92;;;17.50;94.50;;;;;;5106313;28;20099;-38
2021/05/11 07:13:20;;;;;;;5.63;4.10;;;17.60;94.40;;;;;;5107950;28;20154;-40
2021/05/11 07:15:46;;;;;;;4.60;3.45;;;17.70;94.30;;;;;;5101528;28;20391;-37
2021/05/11 07:18:17;;;;;;;7.35;4.05;;;17.90;94.20;;;;;;5108039;28;20020;-40
2021/05/11 07:20:46;;;;;;;5.53;3.88;;;18.00;94.10;;;;;;5096310;28;20032;-38
2021/05/11 07:23:16;;;;;;;4.18;3.55;;;18.10;94.00;;;;;;5107376;28;20449;-39
2021/05/11 07:25:59;;;;;;;6.07;3.50;;;18.20;93.80;;;;;;5097301;28;20067;-38
2021/05/11 07:30:58;;;;;;;6.03;4.00;;;18.30;93.60;;;;;;5102263;28;20035;-38
2021/05/11 07:33:32;;;;;;;7.07;3.80;;;18.40;93.60;;;;;;5107519;28;20023;-40
2021/05/11 07:35:57;;;;;;;7.20;4.38;;;18.50;93.50;;;;;;5098854;28;20073;-40
2021/05/11 07:38:24;;;;;;;6.88;4.50;;;18.70;93.20;;;;;;5104542;28;20114;-40
2021/05/11 07:40:51;;;;;;;5.65;4.30;;;18.80;92.80;;;;;;5099211;28;20031;-38
2021/05/11 07:43:17;;;;;;;7.38;4.88;;;18.90;92.60;;;;;;5102379;28;20012;-40
2021/05/11 07:48:48;;;;;;;5.32;3.65;;;19.00;92.40;;;;;;5101444;28;20024;-39
2021/05/11 08:05:58;;;;;;;6.97;3.40;;;19.20;91.70;;;;;;5087202;28;20035;-39
2021/05/11 08:10:34;;;;;;;5.03;3.15;;;19.40;91.30;;;;;;5107987;28;20057;-39
2021/05/11 08:15:52;;;;;;;6.25;3.10;;;19.50;90.90;;;;;;5107080;28;20073;-39
2021/05/11 08:18:28;;;;;;;6.65;3.30;;;19.40;90.60;;;;;;5102112;28;20036;-39
2021/05/11 08:29:06;;;;;;;6.43;3.05;;;19.30;91.00;;;;;;5107505;28;20043;-39
2021/05/11 08:31:32;;;;;;;6.43;3.53;;;19.30;90.90;;;;;;5105806;28;20019;-41
2021/05/11 08:33:57;;;;;;;6.88;3.58;;;19.30;91.00;;;;;;5107576;28;20028;-40
2021/05/11 08:36:25;;;;;;;6.05;3.42;;;19.30;90.90;;;;;;5108187;28;20027;-40
2021/05/11 08:38:50;;;;;;;7.10;3.63;;;19.30;90.90;;;;;;5093102;28;20065;-40
2021/05/11 08:41:16;;;;;;;5.07;3.22;;;19.30;90.90;;;;;;5095554;28;20434;-39
2021/05/11 08:43:44;;;;;;;6.78;3.30;;;19.20;90.90;;;;;;5104817;28;20078;-38
2021/05/11 08:46:11;;;;;;;6.03;3.53;;;19.10;91.00;;;;;;5085492;28;20055;-41
2021/05/11 08:48:37;;;;;;;5.72;3.53;;;19.10;91.00;;;;;;5105984;28;20007;-40
2021/05/11 09:04:38;;;;;;;6.45;3.50;;;19.00;90.90;;;;;;5092017;28;20074;-38
2021/05/11 09:27:23;;;;;;;7.32;3.47;;;18.60;91.10;;;;;;5088297;28;20082;-39
2021/05/11 09:30:07;;;;;;;7.45;3.13;;;18.70;91.10;;;;;;5094853;28;20015;-39
2021/05/11 09:33:04;;;;;;;7.32;3.10;;;18.70;91.10;;;;;;5087057;28;20028;-37
2021/05/11 09:45:03;;;;;;;5.88;3.97;;;18.70;91.10;;;;;;5098729;28;20031;-40
2021/05/11 09:45:05;;;;;;;5.15;3.05;;;18.80;91.00;;;;;;5086889;28;20467;-40
2021/05/11 09:58:57;;;;;;;6.38;3.15;;;18.50;91.00;;;;;;5086615;28;20560;-39
2021/05/11 10:37:24;;;;;;;3.50;1.67;;;19.90;87.80;;;;;;5102979;28;20435;-39
2021/05/11 10:42:02;;;;;;;3.25;1.92;;;20.10;85.90;;;;;;5095105;28;20642;-41
2021/05/11 10:46:22;;;;;;;4.15;2.70;;;20.10;85.50;;;;;;5098378;28;20504;-40
2021/05/11 10:48:22;;;;;;;3.93;2.50;;;20.10;85.10;;;;;;5107357;28;20043;-41
2021/05/11 10:50:58;;;;;;;5.30;3.33;;;20.20;85.50;;;;;;5025825;28;20092;-40
2021/05/11 10:53:39;;;;;;;5.70;3.15;;;20.20;85.60;;;;;;5096545;28;20077;-39
2021/05/11 11:01:44;;;;;;;4.50;2.78;;;20.60;85.50;;;;;;5106868;28;20318;-39
2021/05/11 11:04:17;;;;;;;4.00;2.10;;;20.70;84.80;;;;;;5103998;28;20031;-40
2021/05/11 11:07:00;;;;;;;2.65;1.40;;;20.80;84.40;;;;;;5106493;28;20035;-42
2021/05/11 11:09:27;;;;;;;3.15;1.70;;;20.90;83.70;;;;;;5097733;28;20063;-40
2021/05/11 11:11:53;;;;;;;4.88;2.10;;;21.00;82.50;;;;;;5107826;28;20031;-39
2021/05/11 11:14:19;;;;;;;6.25;2.17;;;21.10;81.90;;;;;;5097339;28;20053;-38
2021/05/11 11:16:45;;;;;;;2.90;1.65;;;21.10;81.70;;;;;;5108345;28;20398;-39
2021/05/11 11:19:12;;;;;;;3.35;1.98;;;21.20;82.00;;;;;;5096567;28;20019;-38
2021/05/11 11:24:31;;;;;;;4.65;2.40;;;21.30;82.00;;;;;;5102591;28;20035;-39
2021/05/11 11:26:58;;;;;;;3.78;2.30;;;21.30;81.90;;;;;;5107841;28;20024;-39
2021/05/11 11:29:28;;;;;;;5.13;2.15;;;21.40;82.00;;;;;;5108708;28;20058;-39
2021/05/11 11:31:55;;;;;;;4.10;2.00;;;21.40;82.00;;;;;;5108812;28;20029;-40
2021/05/11 11:34:39;;;;;;;3.88;1.88;;;21.30;82.10;;;;;;5095710;28;20024;-38
2021/05/11 11:37:15;;;;;;;2.97;1.70;;;21.20;81.50;;;;;;5100236;28;20031;-39
2021/05/11 11:39:45;;;;;;;5.78;2.70;;;21.10;81.50;;;;;;5096815;28;20475;-39
2021/05/11 11:42:21;;;;;;;5.93;2.70;;;20.80;81.70;;;;;;5108100;28;20034;-39
2021/05/11 11:44:59;;;;;;;5.40;2.28;;;20.60;81.60;;;;;;5104783;28;20070;-39
2021/05/11 11:47:25;;;;;;;4.00;2.13;;;20.30;82.20;;;;;;5106958;28;20035;-40
2021/05/11 11:49:54;;;;;;;4.55;1.60;;;20.10;82.30;;;;;;5103374;28;20051;-40
2021/05/11 11:52:28;;;;;;;3.47;1.48;;;20.00;82.60;;;;;;5105904;28;20065;-38
2021/05/11 11:57:46;;;;;;;4.75;1.88;;;19.70;83.20;;;;;;5105293;28;20035;-39
2021/05/11 12:00:26;;;;;;;7.40;2.33;;;19.60;83.50;;;;;;5095227;28;20044;-39
2021/05/11 12:03:09;;;;;;;3.50;1.83;;;19.50;83.70;;;;;;5106829;28;20027;-39
2021/05/11 12:05:57;;;;;;;4.25;2.08;;;19.40;84.00;;;;;;5094049;28;20085;-40
2021/05/11 12:08:27;;;;;;;4.13;2.35;;;19.30;83.80;;;;;;5085728;28;20468;-40
2021/05/11 12:11:01;;;;;;;3.83;2.00;;;19.10;84.10;;;;;;5097856;28;20019;-38
2021/05/11 12:13:29;;;;;;;3.75;2.10;;;19.10;84.50;;;;;;5087215;28;20031;-41
2021/05/11 12:16:24;;;;;;;3.75;2.55;;;19.00;84.80;;;;;;5098739;28;20066;-37
2021/05/11 12:19:09;;;;;;;5.07;3.08;;;18.90;85.10;;;;;;5085783;28;20580;-38
2021/05/11 12:21:47;;;;;;;4.25;2.83;;;18.80;85.40;;;;;;5103468;28;20426;-40
2021/05/11 12:24:13;;;;;;;4.55;3.65;;;18.80;85.70;;;;;;5106583;28;20019;-40
2021/05/11 12:26:44;;;;;;;6.05;3.55;;;18.70;86.30;;;;;;5095597;28;20394;-40
2021/05/11 12:29:12;;;;;;;6.95;4.38;;;18.60;86.80;;;;;;5107429;28;20020;-39
2021/05/11 12:31:43;;;;;;;6.07;3.53;;;18.60;87.30;;;;;;5098912;28;20100;-38
2021/05/11 12:34:11;;;;;;;6.68;3.88;;;18.60;87.70;;;;;;5087498;28;20024;-40
2021/05/11 12:36:47;;;;;;;6.43;3.90;;;18.60;88.20;;;;;;5099582;28;20098;-39
2021/05/11 12:39:18;;;;;;;5.72;4.10;;;18.60;88.40;;;;;;5086545;28;20088;-39
2021/05/11 12:41:44;;;;;;;7.93;4.72;;;18.60;88.90;;;;;;5092703;28;20032;-39
2021/05/11 12:44:29;;;;;;;6.60;4.05;;;18.60;89.40;;;;;;5106928;28;20042;-39
2021/05/11 12:47:01;;;;;;;7.10;4.43;;;18.60;89.60;;;;;;5093995;28;20699;-38
2021/05/11 12:49:27;;;;;;;;;;;18.60;89.80;;;;;;5107628;28;20096;-37
2021/05/11 12:51:56;;;;;;;6.88;3.88;;;18.50;89.80;;;;;;5093696;28;19985;-38
2021/05/11 12:54:40;;;;;;;7.07;4.90;;;18.40;90.00;;;;;;5086198;28;20020;-40
2021/05/11 13:16:31;;;;;;;8.20;3.72;;;17.90;91.50;;;;;;5102861;28;20115;-41
2021/05/11 13:27:41;;;;;;;6.55;3.85;;;17.70;92.40;;;;;;5103303;28;20046;-41
2021/05/11 13:30:05;;;;;;;5.03;3.40;;;17.70;92.60;;;;;;5094611;28;20023;-41
2021/05/11 13:32:45;;;;;;;5.97;3.15;;;17.60;92.70;;;;;;5103390;28;20887;-40
2021/05/11 13:35:11;;;;;;;7.68;3.40;;;17.60;92.80;;;;;;5105314;28;20028;-43
2021/05/11 13:37:36;;;;;;;7.32;3.70;;;17.60;92.90;;;;;;5104063;28;20122;-39
2021/05/11 13:40:05;;;;;;;5.80;3.58;;;17.60;93.30;;;;;;5104266;28;20126;-40
2021/05/11 13:42:31;;;;;;;5.88;3.10;;;17.60;93.10;;;;;;5102734;28;20042;-40
2021/05/11 13:44:56;;;;;;;7.32;3.72;;;17.60;93.00;;;;;;5094453;28;20020;-39
2021/05/11 13:47:23;;;;;;;5.28;3.30;;;17.60;93.10;;;;;;5102567;28;20414;-39
2021/05/11 13:49:51;;;;;;;7.18;3.22;;;17.60;93.20;;;;;;5091766;28;20541;-39
2021/05/11 13:52:17;;;;;;;3.70;2.50;;;17.60;93.20;;;;;;5103069;28;20473;-40
2021/05/11 13:54:44;;;;;;;6.65;2.75;;;17.60;93.20;;;;;;5092242;28;20093;-40
2021/05/11 13:57:21;;;;;;;5.63;3.08;;;17.60;93.20;;;;;;5105383;28;20027;-40
2021/05/11 14:02:39;;;;;;;5.85;2.42;;;17.50;93.30;;;;;;5104117;28;20410;-39
2021/05/11 14:05:05;;;;;;;9.35;3.88;;;17.50;93.30;;;;;;5103284;28;20057;-39
2021/05/11 14:07:31;;;;;;;7.75;3.60;;;17.40;93.30;;;;;;5105658;28;20070;-39
2021/05/11 14:09:58;;;;;;;5.25;3.30;;;17.50;93.40;;;;;;5092745;28;20039;-38
2021/05/11 14:12:23;;;;;;;5.90;3.53;;;17.50;93.40;;;;;;5106433;28;20077;-38
2021/05/11 14:14:49;;;;;;;4.38;3.17;;;17.50;93.50;;;;;;5092613;28;20859;-39
2021/05/11 14:17:15;;;;;;;6.55;4.00;;;17.50;93.40;;;;;;5108046;28;20015;-39
2021/05/11 14:19:41;;;;;;;5.50;3.10;;;17.50;93.40;;;;;;5097798;28;20054;-40
2021/05/11 14:22:06;;;;;;;5.47;3.28;;;17.50;93.50;;;;;;5108239;28;20032;-39
2021/05/11 14:24:32;;;;;;;8.23;3.40;;;17.50;93.50;;;;;;5100397;28;20059;-40
2021/05/11 14:26:58;;;;;;;5.80;4.03;;;17.50;93.60;;;;;;5105413;28;20035;-39
2021/05/11 14:29:23;;;;;;;8.82;4.00;;;17.50;93.70;;;;;;5103671;28;20012;-39
2021/05/11 14:31:50;;;;;;;9.05;4.15;;;17.50;93.70;;;;;;5102254;28;20057;-39
2021/05/11 14:34:16;;;;;;;9.48;4.30;;;17.50;93.80;;;;;;5106181;28;20089;-39
2021/05/11 14:36:42;;;;;;;6.28;3.92;;;17.50;93.90;;;;;;5100052;28;20514;-40
2021/05/11 14:39:07;;;;;;;7.88;3.72;;;17.60;94.00;;;;;;5107654;28;20047;-37
2021/05/11 14:41:36;;;;;;;6.53;3.92;;;17.60;94.00;;;;;;5106062;28;20019;-38
2021/05/11 14:44:02;;;;;;;5.78;3.33;;;17.60;94.00;;;;;;5106739;28;20020;-40
2021/05/11 14:46:28;;;;;;;7.50;4.07;;;17.60;94.00;;;;;;5100336;28;20085;-39
2021/05/11 14:48:54;;;;;;;8.27;4.57;;;17.60;94.10;;;;;;5089092;28;20024;-37
2021/05/11 14:51:19;;;;;;;7.78;5.30;;;17.60;94.20;;;;;;5101410;28;20032;-36
2021/05/11 14:53:46;;;;;;;8.27;5.25;;;17.60;94.30;;;;;;5088237;28;20020;-37
2021/05/11 14:56:12;;;;;;;7.63;4.70;;;17.60;94.40;;;;;;5101789;28;20412;-39
2021/05/11 14:58:38;;;;;;;8.75;5.55;;;17.50;94.50;;;;;;5088152;28;20035;-40
2021/05/11 15:01:04;;;;;;;7.25;4.88;;;17.50;94.50;;;;;;5099299;28;20071;-39
2021/05/11 15:03:30;;;;;;;6.38;4.70;;;17.50;94.60;;;;;;5090130;28;20016;-39
2021/05/11 15:05:55;;;;;;;7.15;4.90;;;17.50;94.70;;;;;;5096927;28;20031;-39
2021/05/11 15:08:26;;;;;;;6.18;4.55;;;17.50;94.70;;;;;;5092995;28;20012;-40
2021/05/11 15:10:52;;;;;;;8.07;4.75;;;17.50;94.80;;;;;;5094745;28;20156;-39
2021/05/11 15:13:18;;;;;;;7.45;5.05;;;17.50;94.80;;;;;;5095279;28;20107;-42
2021/05/11 15:15:50;;;;;;;7.18;5.30;;;17.50;94.90;;;;;;5098693;28;20443;-41
2021/05/11 15:18:16;;;;;;;6.47;4.70;;;17.50;94.90;;;;;;5106229;28;20088;-41
2021/05/11 15:20:46;;;;;;;6.30;4.70;;;17.60;94.90;;;;;;5091829;28;20671;-40
2021/05/11 15:23:11;;;;;;;6.35;5.05;;;17.50;94.80;;;;;;5105281;28;20024;-40
2021/05/11 15:25:38;;;;;;;7.63;4.95;;;17.50;94.70;;;;;;5105209;28;20039;-38
2021/05/11 15:28:04;;;;;;;7.35;5.50;;;17.50;94.70;;;;;;5099719;28;20390;-40
2021/05/11 15:30:31;;;;;;;7.53;5.13;;;17.50;94.70;;;;;;5106947;28;20027;-39
2021/05/11 15:32:57;;;;;;;4.70;4.00;;;17.50;94.80;;;;;;5096583;28;20023;-39
2021/05/11 15:35:24;;;;;;;6.30;4.47;;;17.50;94.80;;;;;;5107878;28;20039;-39
2021/05/11 15:37:53;;;;;;;7.65;4.88;;;17.50;94.90;;;;;;5106580;28;20047;-38
2021/05/11 15:40:21;;;;;;;6.13;4.40;;;17.50;95.00;;;;;;5096610;28;20039;-38
2021/05/11 15:42:47;;;;;;;7.57;5.90;;;17.60;95.10;;;;;;5097074;28;20131;-40
2021/05/11 15:45:13;;;;;;;7.25;5.93;;;17.60;95.10;;;;;;5094683;28;20028;-40
2021/05/11 15:47:51;;;;;;;7.93;6.10;;;17.60;95.10;;;;;;5099328;28;20095;-40
2021/05/11 15:50:27;;;;;;;8.65;6.20;;;17.70;95.10;;;;;;5096189;28;20042;-40
2021/05/11 15:52:55;;;;;;;6.75;5.68;;;17.70;95.00;;;;;;5099915;28;20042;-40
2021/05/11 15:55:22;;;;;;;7.32;6.15;;;17.70;95.10;;;;;;5107105;28;20127;-41
2021/05/11 15:57:50;;;;;;;8.55;6.30;;;17.80;95.10;;;;;;5102910;28;20102;-40
2021/05/11 16:00:16;;;;;;;10.93;6.60;;;17.80;95.10;;;;;;5105870;28;20047;-41
2021/05/11 16:02:41;;;;;;;9.55;7.35;;;17.80;95.00;;;;;;5102423;28;20020;-40
2021/05/11 16:05:07;;;;;;;8.55;6.60;;;17.80;94.90;;;;;;5105501;28;20038;-41
2021/05/11 16:07:34;;;;;;;7.90;6.28;;;17.80;94.90;;;;;;5102761;28;20027;-37
2021/05/11 16:10:02;;;;;;;9.00;6.68;;;17.70;94.90;;;;;;5099532;28;20016;-40
2021/05/11 16:12:28;;;;;;;7.10;6.10;;;17.70;95.00;;;;;;5104868;28;20390;-40
2021/05/11 16:14:53;;;;;;;7.05;6.35;;;17.70;95.10;;;;;;5097386;28;20016;-40
2021/05/11 16:17:19;;;;;;;8.02;5.82;;;17.70;95.20;;;;;;5092441;28;20185;-38
2021/05/11 16:19:48;;;;;;;6.47;5.82;;;17.70;95.20;;;;;;5094451;28;20228;-40
2021/05/11 16:22:13;;;;;;;11.40;7.90;;;17.70;95.20;;;;;;5103822;28;20394;-41
2021/05/11 16:24:39;;;;;;;9.05;7.28;;;17.70;95.30;;;;;;5092873;28;20501;-38
2021/05/11 16:27:05;;;;;;;9.05;6.18;;;17.70;95.30;;;;;;5106750;28;20047;-41
2021/05/11 16:29:31;;;;;;;7.00;5.80;;;17.70;95.40;;;;;;5092485;28;20027;-40
2021/05/11 16:31:58;;;;;;;7.07;5.43;;;17.70;95.40;;;;;;5106144;28;20038;-40
2021/05/11 16:34:24;;;;;;;6.82;5.05;;;17.70;95.40;;;;;;5093515;28;20368;-43
2021/05/11 16:36:50;;;;;;;7.30;5.35;;;17.70;95.40;;;;;;5106044;28;20128;-39
2021/05/11 16:39:15;;;;;;;5.85;5.00;;;17.60;95.40;;;;;;5101980;28;20474;-40
2021/05/11 16:41:41;;;;;;;6.72;5.03;;;17.60;95.50;;;;;;5104566;28;20501;-40